sensor_id;sensor_type;location;lat;lon;timestamp;temperature;humidity
20416;DHT22;10367;52.202;5.996;2023-04-01T00:01:18;9.80;99.90
20416;DHT22;10367;52.202;5.996;2023-04-01T00:03:47;9.80;99.90
20416;DHT22;10367;52.202;5.996;2023-04-01T00:06:17;9.80;99.90
20416;DHT22;10367;52.202;5.996;2023-04-01T00:08:46;9.80;99.90
20416;DHT22;10367;52.202;5.996;2023-04-01T00:11:16;9.90;99.90
20416;DHT22;10367;52.202;5.996;2023-04-01T00:13:47;9.80;99.90
20416;DHT22;10367;52.202;5.996;2023-04-01T00:16:18;9.90;99.90
20416;DHT22;10367;52.202;5.996;2023-04-01T00:18:49;9.90;99.90
20416;DHT22;10367;52.202;5.996;2023-04-01T00:21:19;9.80;99.90
20416;DHT22;10367;52.202;5.996;2023-04-01T00:23:49;9.90;99.90
20416;DHT22;10367;52.202;5.996;2023-04-01T00:26:18;9.80;99.90
20416;DHT22;10367;52.202;5.996;2023-04-01T00:28:49;9.80;99.90
20416;DHT22;10367;52.202;5.996;2023-04-01T00:31:20;9.80;99.90
20416;DHT22;10367;52.202;5.996;2023-04-01T00:33:48;9.80;99.90
20416;DHT22;10367;52.202;5.996;2023-04-01T00:36:19;9.80;99.90
20416;DHT22;10367;52.202;5.996;2023-04-01T00:38:49;9.90;99.90
20416;DHT22;10367;52.202;5.996;2023-04-01T00:41:19;9.80;99.90
20416;DHT22;10367;52.202;5.996;2023-04-01T00:43:50;9.90;99.90
20416;DHT22;10367;52.202;5.996;2023-04-01T00:46:20;9.90;99.90
20416;DHT22;10367;52.202;5.996;2023-04-01T00:48:52;9.80;99.90
20416;DHT22;10367;52.202;5.996;2023-04-01T00:51:25;9.90;99.90
20416;DHT22;10367;52.202;5.996;2023-04-01T00:53:58;9.90;99.90
20416;DHT22;10367;52.202;5.996;2023-04-01T00:56:33;9.90;99.90
20416;DHT22;10367;52.202;5.996;2023-04-01T00:59:05;9.80;99.90
20416;DHT22;10367;52.202;5.996;2023-04-01T01:01:37;9.80;99.90
20416;DHT22;10367;52.202;5.996;2023-04-01T01:04:06;9.90;99.90
20416;DHT22;10367;52.202;5.996;2023-04-01T01:06:43;9.90;99.90
20416;DHT22;10367;52.202;5.996;2023-04-01T01:09:26;9.80;99.90
20416;DHT22;10367;52.202;5.996;2023-04-01T01:12:04;9.90;99.90
20416;DHT22;10367;52.202;5.996;2023-04-01T01:14:45;9.90;99.90
20416;DHT22;10367;52.202;5.996;2023-04-01T01:17:25;9.90;99.90
20416;DHT22;10367;52.202;5.996;2023-04-01T01:23:36;9.90;99.90
20416;DHT22;10367;52.202;5.996;2023-04-01T01:26:28;9.90;99.90
20416;DHT22;10367;52.202;5.996;2023-04-01T01:29:11;9.90;99.90
20416;DHT22;10367;52.202;5.996;2023-04-01T01:31:49;9.90;99.90
20416;DHT22;10367;52.202;5.996;2023-04-01T01:34:24;9.80;99.90
20416;DHT22;10367;52.202;5.996;2023-04-01T01:36:59;9.90;99.90
20416;DHT22;10367;52.202;5.996;2023-04-01T01:39:31;9.90;99.90
20416;DHT22;10367;52.202;5.996;2023-04-01T01:42:04;9.90;99.90
20416;DHT22;10367;52.202;5.996;2023-04-01T01:44:34;9.90;99.90
20416;DHT22;10367;52.202;5.996;2023-04-01T01:47:04;9.80;99.90
20416;DHT22;10367;52.202;5.996;2023-04-01T01:49:34;9.90;99.90
20416;DHT22;10367;52.202;5.996;2023-04-01T01:52:05;9.90;99.90
20416;DHT22;10367;52.202;5.996;2023-04-01T01:54:33;9.80;99.90
20416;DHT22;10367;52.202;5.996;2023-04-01T01:57:05;9.90;99.90
20416;DHT22;10367;52.202;5.996;2023-04-01T01:59:36;9.90;99.90
20416;DHT22;10367;52.202;5.996;2023-04-01T02:02:07;9.80;99.90
20416;DHT22;10367;52.202;5.996;2023-04-01T02:04:40;9.90;99.90
20416;DHT22;10367;52.202;5.996;2023-04-01T02:07:16;9.80;99.90
20416;DHT22;10367;52.202;5.996;2023-04-01T02:09:47;9.80;99.90
20416;DHT22;10367;52.202;5.996;2023-04-01T02:12:19;9.90;99.90
20416;DHT22;10367;52.202;5.996;2023-04-01T02:14:52;9.80;99.90
20416;DHT22;10367;52.202;5.996;2023-04-01T02:17:24;9.80;99.90
20416;DHT22;10367;52.202;5.996;2023-04-01T02:19:58;9.80;99.90
20416;DHT22;10367;52.202;5.996;2023-04-01T02:22:32;9.80;99.90
20416;DHT22;10367;52.202;5.996;2023-04-01T02:25:07;9.80;99.90
20416;DHT22;10367;52.202;5.996;2023-04-01T02:27:37;9.80;99.90
20416;DHT22;10367;52.202;5.996;2023-04-01T02:30:07;9.80;99.90
20416;DHT22;10367;52.202;5.996;2023-04-01T02:32:38;9.80;99.90
20416;DHT22;10367;52.202;5.996;2023-04-01T02:35:09;9.80;99.90
20416;DHT22;10367;52.202;5.996;2023-04-01T02:37:40;9.80;99.90
20416;DHT22;10367;52.202;5.996;2023-04-01T02:40:12;9.80;99.90
20416;DHT22;10367;52.202;5.996;2023-04-01T02:42:42;9.80;99.90
20416;DHT22;10367;52.202;5.996;2023-04-01T02:45:13;9.70;99.90
20416;DHT22;10367;52.202;5.996;2023-04-01T02:47:42;9.70;99.90
20416;DHT22;10367;52.202;5.996;2023-04-01T02:50:11;9.70;99.90
20416;DHT22;10367;52.202;5.996;2023-04-01T02:52:41;9.70;99.90
20416;DHT22;10367;52.202;5.996;2023-04-01T02:55:10;9.70;99.90
20416;DHT22;10367;52.202;5.996;2023-04-01T02:57:38;9.70;99.90
20416;DHT22;10367;52.202;5.996;2023-04-01T03:00:08;9.70;99.90
20416;DHT22;10367;52.202;5.996;2023-04-01T03:02:38;9.70;99.90
20416;DHT22;10367;52.202;5.996;2023-04-01T03:05:08;9.70;99.90
20416;DHT22;10367;52.202;5.996;2023-04-01T03:07:36;9.70;99.90
20416;DHT22;10367;52.202;5.996;2023-04-01T03:10:07;9.60;99.90
20416;DHT22;10367;52.202;5.996;2023-04-01T03:12:36;9.70;99.90
20416;DHT22;10367;52.202;5.996;2023-04-01T03:15:06;9.70;99.90
20416;DHT22;10367;52.202;5.996;2023-04-01T03:17:38;9.60;99.90
20416;DHT22;10367;52.202;5.996;2023-04-01T03:20:08;9.60;99.90
20416;DHT22;10367;52.202;5.996;2023-04-01T03:22:38;9.60;99.90
20416;DHT22;10367;52.202;5.996;2023-04-01T03:25:10;9.60;99.90
20416;DHT22;10367;52.202;5.996;2023-04-01T03:27:41;9.60;99.90
20416;DHT22;10367;52.202;5.996;2023-04-01T03:30:11;9.60;99.90
20416;DHT22;10367;52.202;5.996;2023-04-01T03:32:40;9.60;99.90
20416;DHT22;10367;52.202;5.996;2023-04-01T03:35:08;9.60;99.90
20416;DHT22;10367;52.202;5.996;2023-04-01T03:37:38;9.50;99.90
20416;DHT22;10367;52.202;5.996;2023-04-01T03:40:07;9.50;99.90
20416;DHT22;10367;52.202;5.996;2023-04-01T03:42:38;9.60;99.90
20416;DHT22;10367;52.202;5.996;2023-04-01T03:45:25;9.60;99.90
20416;DHT22;10367;52.202;5.996;2023-04-01T03:47:54;9.50;99.90
20416;DHT22;10367;52.202;5.996;2023-04-01T03:50:22;9.60;99.90
20416;DHT22;10367;52.202;5.996;2023-04-01T03:52:51;9.60;99.90
20416;DHT22;10367;52.202;5.996;2023-04-01T03:55:19;9.60;99.90
20416;DHT22;10367;52.202;5.996;2023-04-01T03:57:49;9.60;99.90
20416;DHT22;10367;52.202;5.996;2023-04-01T04:00:19;9.50;99.90
20416;DHT22;10367;52.202;5.996;2023-04-01T04:02:47;9.50;99.90
20416;DHT22;10367;52.202;5.996;2023-04-01T04:05:16;9.50;99.90
20416;DHT22;10367;52.202;5.996;2023-04-01T04:07:45;9.50;99.90
20416;DHT22;10367;52.202;5.996;2023-04-01T04:10:13;9.50;99.90
20416;DHT22;10367;52.202;5.996;2023-04-01T04:12:42;9.50;99.90
20416;DHT22;10367;52.202;5.996;2023-04-01T04:15:13;9.50;99.90
20416;DHT22;10367;52.202;5.996;2023-04-01T04:17:44;9.50;99.90
20416;DHT22;10367;52.202;5.996;2023-04-01T04:20:14;9.50;99.90
20416;DHT22;10367;52.202;5.996;2023-04-01T04:22:42;9.50;99.90
20416;DHT22;10367;52.202;5.996;2023-04-01T04:25:30;9.50;99.90
20416;DHT22;10367;52.202;5.996;2023-04-01T04:27:59;9.50;99.90
20416;DHT22;10367;52.202;5.996;2023-04-01T04:30:29;9.50;99.90
20416;DHT22;10367;52.202;5.996;2023-04-01T04:32:58;9.50;99.90
20416;DHT22;10367;52.202;5.996;2023-04-01T04:35:27;9.50;99.90
20416;DHT22;10367;52.202;5.996;2023-04-01T04:37:55;9.50;99.90
20416;DHT22;10367;52.202;5.996;2023-04-01T04:40:24;9.50;99.90
20416;DHT22;10367;52.202;5.996;2023-04-01T04:42:52;9.50;99.90
20416;DHT22;10367;52.202;5.996;2023-04-01T04:45:21;9.50;99.90
20416;DHT22;10367;52.202;5.996;2023-04-01T04:47:51;9.50;99.90
20416;DHT22;10367;52.202;5.996;2023-04-01T04:50:20;9.50;99.90
20416;DHT22;10367;52.202;5.996;2023-04-01T04:52:48;9.50;99.90
20416;DHT22;10367;52.202;5.996;2023-04-01T04:55:17;9.50;99.90
20416;DHT22;10367;52.202;5.996;2023-04-01T04:57:46;9.50;99.90
20416;DHT22;10367;52.202;5.996;2023-04-01T05:00:15;9.50;99.90
20416;DHT22;10367;52.202;5.996;2023-04-01T05:02:44;9.50;99.90
20416;DHT22;10367;52.202;5.996;2023-04-01T05:05:14;9.50;99.90
20416;DHT22;10367;52.202;5.996;2023-04-01T05:07:43;9.50;99.90
20416;DHT22;10367;52.202;5.996;2023-04-01T05:10:11;9.50;99.90
20416;DHT22;10367;52.202;5.996;2023-04-01T05:12:40;9.50;99.90
20416;DHT22;10367;52.202;5.996;2023-04-01T05:15:09;9.50;99.90
20416;DHT22;10367;52.202;5.996;2023-04-01T05:17:38;9.50;99.90
20416;DHT22;10367;52.202;5.996;2023-04-01T05:20:07;9.50;99.90
20416;DHT22;10367;52.202;5.996;2023-04-01T05:22:38;9.50;99.90
20416;DHT22;10367;52.202;5.996;2023-04-01T05:25:07;9.40;99.90
20416;DHT22;10367;52.202;5.996;2023-04-01T05:27:36;9.50;99.90
20416;DHT22;10367;52.202;5.996;2023-04-01T05:30:05;9.50;99.90
20416;DHT22;10367;52.202;5.996;2023-04-01T05:32:34;9.50;99.90
20416;DHT22;10367;52.202;5.996;2023-04-01T05:35:03;9.50;99.90
20416;DHT22;10367;52.202;5.996;2023-04-01T05:37:33;9.50;99.90
20416;DHT22;10367;52.202;5.996;2023-04-01T05:40:04;9.50;99.90
20416;DHT22;10367;52.202;5.996;2023-04-01T05:42:33;9.50;99.90
20416;DHT22;10367;52.202;5.996;2023-04-01T05:45:05;9.50;99.90
20416;DHT22;10367;52.202;5.996;2023-04-01T05:47:34;9.50;99.90
20416;DHT22;10367;52.202;5.996;2023-04-01T05:50:03;9.50;99.90
20416;DHT22;10367;52.202;5.996;2023-04-01T05:52:32;9.50;99.90
20416;DHT22;10367;52.202;5.996;2023-04-01T05:55:03;9.50;99.90
20416;DHT22;10367;52.202;5.996;2023-04-01T05:57:32;9.50;99.90
20416;DHT22;10367;52.202;5.996;2023-04-01T06:00:02;9.50;99.90
20416;DHT22;10367;52.202;5.996;2023-04-01T06:02:30;9.50;99.90
20416;DHT22;10367;52.202;5.996;2023-04-01T06:05:09;9.60;99.90
20416;DHT22;10367;52.202;5.996;2023-04-01T06:07:40;9.60;99.90
20416;DHT22;10367;52.202;5.996;2023-04-01T06:10:15;9.60;99.90
20416;DHT22;10367;52.202;5.996;2023-04-01T06:12:54;9.60;99.90
20416;DHT22;10367;52.202;5.996;2023-04-01T06:15:34;9.60;99.90
20416;DHT22;10367;52.202;5.996;2023-04-01T06:24:26;9.60;99.90
20416;DHT22;10367;52.202;5.996;2023-04-01T06:27:04;9.60;99.90
20416;DHT22;10367;52.202;5.996;2023-04-01T06:29:47;9.60;99.90
20416;DHT22;10367;52.202;5.996;2023-04-01T06:32:30;9.60;99.90
20416;DHT22;10367;52.202;5.996;2023-04-01T06:35:17;9.60;99.90
20416;DHT22;10367;52.202;5.996;2023-04-01T06:38:02;9.60;99.90
20416;DHT22;10367;52.202;5.996;2023-04-01T06:40:52;9.60;99.90
20416;DHT22;10367;52.202;5.996;2023-04-01T06:43:35;9.60;99.90
20416;DHT22;10367;52.202;5.996;2023-04-01T06:46:11;9.60;99.90
20416;DHT22;10367;52.202;5.996;2023-04-01T06:48:55;9.60;99.90
20416;DHT22;10367;52.202;5.996;2023-04-01T06:51:36;9.60;99.90
20416;DHT22;10367;52.202;5.996;2023-04-01T06:54:10;9.60;99.90
20416;DHT22;10367;52.202;5.996;2023-04-01T06:56:42;9.60;99.90
20416;DHT22;10367;52.202;5.996;2023-04-01T06:59:17;9.60;99.90
20416;DHT22;10367;52.202;5.996;2023-04-01T07:01:50;9.70;99.90
20416;DHT22;10367;52.202;5.996;2023-04-01T07:04:24;9.60;99.90
20416;DHT22;10367;52.202;5.996;2023-04-01T07:06:56;9.70;99.90
20416;DHT22;10367;52.202;5.996;2023-04-01T07:09:32;9.60;99.90
20416;DHT22;10367;52.202;5.996;2023-04-01T07:12:04;9.70;99.90
20416;DHT22;10367;52.202;5.996;2023-04-01T07:14:42;9.70;99.90
20416;DHT22;10367;52.202;5.996;2023-04-01T07:17:15;9.70;99.90
20416;DHT22;10367;52.202;5.996;2023-04-01T07:19:47;9.70;99.90
20416;DHT22;10367;52.202;5.996;2023-04-01T07:22:26;9.70;99.90
20416;DHT22;10367;52.202;5.996;2023-04-01T07:24:59;9.70;99.90
20416;DHT22;10367;52.202;5.996;2023-04-01T07:27:29;9.80;99.90
20416;DHT22;10367;52.202;5.996;2023-04-01T07:30:01;9.80;99.90
20416;DHT22;10367;52.202;5.996;2023-04-01T07:32:38;9.90;99.90
20416;DHT22;10367;52.202;5.996;2023-04-01T07:35:15;9.90;99.90
20416;DHT22;10367;52.202;5.996;2023-04-01T07:37:52;10.00;99.90
20416;DHT22;10367;52.202;5.996;2023-04-01T07:40:34;10.00;99.90
20416;DHT22;10367;52.202;5.996;2023-04-01T07:46:17;10.10;99.90
20416;DHT22;10367;52.202;5.996;2023-04-01T07:48:54;10.20;99.90
20416;DHT22;10367;52.202;5.996;2023-04-01T07:51:28;10.30;99.90
20416;DHT22;10367;52.202;5.996;2023-04-01T07:54:03;10.50;99.90
20416;DHT22;10367;52.202;5.996;2023-04-01T07:56:40;10.60;99.90
20416;DHT22;10367;52.202;5.996;2023-04-01T07:59:15;10.70;99.90
20416;DHT22;10367;52.202;5.996;2023-04-01T08:01:52;10.90;99.90
20416;DHT22;10367;52.202;5.996;2023-04-01T08:04:37;11.00;99.90
20416;DHT22;10367;52.202;5.996;2023-04-01T08:07:13;11.10;99.90
20416;DHT22;10367;52.202;5.996;2023-04-01T08:09:48;11.10;99.90
20416;DHT22;10367;52.202;5.996;2023-04-01T08:12:31;11.20;99.90
20416;DHT22;10367;52.202;5.996;2023-04-01T08:15:11;11.20;99.90
20416;DHT22;10367;52.202;5.996;2023-04-01T08:17:52;11.20;99.90
20416;DHT22;10367;52.202;5.996;2023-04-01T08:20:29;11.00;99.90
20416;DHT22;10367;52.202;5.996;2023-04-01T08:23:07;10.90;99.90
20416;DHT22;10367;52.202;5.996;2023-04-01T08:25:42;11.00;99.90
20416;DHT22;10367;52.202;5.996;2023-04-01T08:28:17;11.00;99.90
20416;DHT22;10367;52.202;5.996;2023-04-01T08:30:52;11.20;99.90
20416;DHT22;10367;52.202;5.996;2023-04-01T08:33:24;11.30;99.90
20416;DHT22;10367;52.202;5.996;2023-04-01T08:35:58;11.30;99.90
20416;DHT22;10367;52.202;5.996;2023-04-01T08:38:32;11.40;99.90
20416;DHT22;10367;52.202;5.996;2023-04-01T08:44:57;11.50;99.90
20416;DHT22;10367;52.202;5.996;2023-04-01T08:53:52;11.90;99.90
20416;DHT22;10367;52.202;5.996;2023-04-01T08:56:31;12.00;99.90
20416;DHT22;10367;52.202;5.996;2023-04-01T08:59:16;12.00;99.90
20416;DHT22;10367;52.202;5.996;2023-04-01T09:02:14;12.00;99.90
20416;DHT22;10367;52.202;5.996;2023-04-01T09:07:52;12.40;99.90
20416;DHT22;10367;52.202;5.996;2023-04-01T09:10:52;12.50;99.90
20416;DHT22;10367;52.202;5.996;2023-04-01T09:13:56;12.50;99.90
20416;DHT22;10367;52.202;5.996;2023-04-01T09:16:44;12.70;99.90
20416;DHT22;10367;52.202;5.996;2023-04-01T09:19:22;12.80;99.90
20416;DHT22;10367;52.202;5.996;2023-04-01T09:22:25;12.90;99.90
20416;DHT22;10367;52.202;5.996;2023-04-01T09:25:12;13.20;99.90
20416;DHT22;10367;52.202;5.996;2023-04-01T09:27:56;13.20;99.90
20416;DHT22;10367;52.202;5.996;2023-04-01T09:30:54;13.10;99.90
20416;DHT22;10367;52.202;5.996;2023-04-01T09:36:43;13.40;99.90
20416;DHT22;10367;52.202;5.996;2023-04-01T09:39:28;13.60;99.90
20416;DHT22;10367;52.202;5.996;2023-04-01T09:42:24;13.60;99.90
20416;DHT22;10367;52.202;5.996;2023-04-01T09:45:01;13.50;99.90
20416;DHT22;10367;52.202;5.996;2023-04-01T09:47:43;13.30;99.90
20416;DHT22;10367;52.202;5.996;2023-04-01T09:50:41;13.00;99.90
20416;DHT22;10367;52.202;5.996;2023-04-01T09:53:20;12.60;99.90
20416;DHT22;10367;52.202;5.996;2023-04-01T09:56:17;12.60;99.90
20416;DHT22;10367;52.202;5.996;2023-04-01T10:02:25;12.20;99.90
20416;DHT22;10367;52.202;5.996;2023-04-01T10:14:29;11.50;99.90
20416;DHT22;10367;52.202;5.996;2023-04-01T10:17:20;11.40;99.90
20416;DHT22;10367;52.202;5.996;2023-04-01T10:20:40;11.40;99.90
20416;DHT22;10367;52.202;5.996;2023-04-01T10:23:22;11.40;99.90
20416;DHT22;10367;52.202;5.996;2023-04-01T10:26:14;11.30;99.90
20416;DHT22;10367;52.202;5.996;2023-04-01T10:29:02;11.40;99.90
20416;DHT22;10367;52.202;5.996;2023-04-01T10:32:14;11.30;99.90
20416;DHT22;10367;52.202;5.996;2023-04-01T10:41:47;11.20;99.90
20416;DHT22;10367;52.202;5.996;2023-04-01T10:45:14;11.20;99.90
20416;DHT22;10367;52.202;5.996;2023-04-01T10:48:13;11.10;99.90
20416;DHT22;10367;52.202;5.996;2023-04-01T10:53:53;10.90;99.90
20416;DHT22;10367;52.202;5.996;2023-04-01T10:56:45;10.90;99.90
20416;DHT22;10367;52.202;5.996;2023-04-01T10:59:45;11.00;99.90
20416;DHT22;10367;52.202;5.996;2023-04-01T11:09:09;11.00;99.90
20416;DHT22;10367;52.202;5.996;2023-04-01T11:12:24;11.10;99.90
20416;DHT22;10367;52.202;5.996;2023-04-01T11:18:25;11.10;99.90
20416;DHT22;10367;52.202;5.996;2023-04-01T11:21:27;11.20;99.90
20416;DHT22;10367;52.202;5.996;2023-04-01T11:27:19;11.20;99.90
20416;DHT22;10367;52.202;5.996;2023-04-01T11:30:12;11.20;99.90
20416;DHT22;10367;52.202;5.996;2023-04-01T11:32:50;11.30;99.90
20416;DHT22;10367;52.202;5.996;2023-04-01T11:35:30;11.40;99.90
20416;DHT22;10367;52.202;5.996;2023-04-01T11:38:07;11.60;99.90
20416;DHT22;10367;52.202;5.996;2023-04-01T11:40:47;11.60;99.90
20416;DHT22;10367;52.202;5.996;2023-04-01T11:43:27;11.70;99.90
20416;DHT22;10367;52.202;5.996;2023-04-01T11:46:08;11.80;99.90
20416;DHT22;10367;52.202;5.996;2023-04-01T11:48:51;12.00;99.90
20416;DHT22;10367;52.202;5.996;2023-04-01T11:51:43;12.20;99.90
20416;DHT22;10367;52.202;5.996;2023-04-01T11:54:28;12.30;99.90
20416;DHT22;10367;52.202;5.996;2023-04-01T11:57:13;12.50;99.90
20416;DHT22;10367;52.202;5.996;2023-04-01T12:00:10;12.50;99.90
20416;DHT22;10367;52.202;5.996;2023-04-01T12:02:55;12.50;99.90
20416;DHT22;10367;52.202;5.996;2023-04-01T12:05:38;12.40;99.90
20416;DHT22;10367;52.202;5.996;2023-04-01T12:08:19;12.30;99.90
20416;DHT22;10367;52.202;5.996;2023-04-01T12:10:55;12.20;99.90
20416;DHT22;10367;52.202;5.996;2023-04-01T12:13:33;12.10;99.90
20416;DHT22;10367;52.202;5.996;2023-04-01T12:16:11;11.90;99.90
20416;DHT22;10367;52.202;5.996;2023-04-01T12:18:50;11.80;99.90
20416;DHT22;10367;52.202;5.996;2023-04-01T12:21:26;11.60;99.90
20416;DHT22;10367;52.202;5.996;2023-04-01T12:24:24;11.50;99.90
20416;DHT22;10367;52.202;5.996;2023-04-01T12:27:12;11.40;99.90
20416;DHT22;10367;52.202;5.996;2023-04-01T12:29:54;11.50;99.90
20416;DHT22;10367;52.202;5.996;2023-04-01T12:32:34;11.50;99.90
20416;DHT22;10367;52.202;5.996;2023-04-01T12:35:21;11.50;99.90
20416;DHT22;10367;52.202;5.996;2023-04-01T12:37:58;11.60;99.90
20416;DHT22;10367;52.202;5.996;2023-04-01T12:40:45;11.60;99.90
20416;DHT22;10367;52.202;5.996;2023-04-01T12:43:48;11.70;99.90
20416;DHT22;10367;52.202;5.996;2023-04-01T12:46:25;11.80;99.90
20416;DHT22;10367;52.202;5.996;2023-04-01T12:49:17;11.80;99.90
20416;DHT22;10367;52.202;5.996;2023-04-01T12:52:07;11.80;99.90
20416;DHT22;10367;52.202;5.996;2023-04-01T12:55:01;11.80;99.90
20416;DHT22;10367;52.202;5.996;2023-04-01T12:57:53;11.80;99.90
20416;DHT22;10367;52.202;5.996;2023-04-01T13:00:43;11.80;99.90
20416;DHT22;10367;52.202;5.996;2023-04-01T13:03:27;11.70;99.90
20416;DHT22;10367;52.202;5.996;2023-04-01T13:09:01;11.80;99.90
20416;DHT22;10367;52.202;5.996;2023-04-01T13:11:40;11.80;99.90
20416;DHT22;10367;52.202;5.996;2023-04-01T13:17:11;12.00;99.90
20416;DHT22;10367;52.202;5.996;2023-04-01T13:19:47;12.00;99.90
20416;DHT22;10367;52.202;5.996;2023-04-01T13:22:42;12.00;99.90
20416;DHT22;10367;52.202;5.996;2023-04-01T13:25:23;12.00;99.90
20416;DHT22;10367;52.202;5.996;2023-04-01T13:27:58;11.80;99.90
20416;DHT22;10367;52.202;5.996;2023-04-01T13:30:36;11.80;99.90
20416;DHT22;10367;52.202;5.996;2023-04-01T13:33:16;11.90;99.90
20416;DHT22;10367;52.202;5.996;2023-04-01T13:35:58;12.00;99.90
20416;DHT22;10367;52.202;5.996;2023-04-01T13:39:06;12.10;99.90
20416;DHT22;10367;52.202;5.996;2023-04-01T13:41:47;12.20;99.90
20416;DHT22;10367;52.202;5.996;2023-04-01T13:44:24;12.30;99.90
20416;DHT22;10367;52.202;5.996;2023-04-01T13:47:30;12.40;99.90
20416;DHT22;10367;52.202;5.996;2023-04-01T13:50:23;12.40;99.90
20416;DHT22;10367;52.202;5.996;2023-04-01T13:53:12;12.30;99.90
20416;DHT22;10367;52.202;5.996;2023-04-01T13:55:55;12.20;99.90
20416;DHT22;10367;52.202;5.996;2023-04-01T13:58:45;12.20;99.90
20416;DHT22;10367;52.202;5.996;2023-04-01T14:01:25;12.30;99.90
20416;DHT22;10367;52.202;5.996;2023-04-01T14:07:22;12.30;99.90
20416;DHT22;10367;52.202;5.996;2023-04-01T14:10:02;12.30;99.90
20416;DHT22;10367;52.202;5.996;2023-04-01T14:12:39;12.30;99.90
20416;DHT22;10367;52.202;5.996;2023-04-01T14:15:34;12.40;99.90
20416;DHT22;10367;52.202;5.996;2023-04-01T14:18:29;12.30;99.90
20416;DHT22;10367;52.202;5.996;2023-04-01T14:21:12;12.30;99.90
20416;DHT22;10367;52.202;5.996;2023-04-01T14:23:53;12.20;99.90
20416;DHT22;10367;52.202;5.996;2023-04-01T14:26:35;12.10;99.90
20416;DHT22;10367;52.202;5.996;2023-04-01T14:29:20;11.80;99.90
20416;DHT22;10367;52.202;5.996;2023-04-01T14:32:02;11.50;99.90
20416;DHT22;10367;52.202;5.996;2023-04-01T14:34:50;11.30;99.90
20416;DHT22;10367;52.202;5.996;2023-04-01T14:37:35;11.10;99.90
20416;DHT22;10367;52.202;5.996;2023-04-01T14:40:21;11.00;99.90
20416;DHT22;10367;52.202;5.996;2023-04-01T14:48:51;10.90;99.90
20416;DHT22;10367;52.202;5.996;2023-04-01T14:51:28;10.90;99.90
20416;DHT22;10367;52.202;5.996;2023-04-01T14:54:09;10.90;99.90
20416;DHT22;10367;52.202;5.996;2023-04-01T14:56:42;10.90;99.90
20416;DHT22;10367;52.202;5.996;2023-04-01T14:59:15;10.90;99.90
20416;DHT22;10367;52.202;5.996;2023-04-01T15:01:52;10.90;99.90
20416;DHT22;10367;52.202;5.996;2023-04-01T15:04:53;10.80;99.90
20416;DHT22;10367;52.202;5.996;2023-04-01T15:13:53;10.60;99.90
20416;DHT22;10367;52.202;5.996;2023-04-01T15:16:27;10.70;99.90
20416;DHT22;10367;52.202;5.996;2023-04-01T15:19:09;10.60;99.90
20416;DHT22;10367;52.202;5.996;2023-04-01T15:21:58;10.60;99.90
20416;DHT22;10367;52.202;5.996;2023-04-01T15:24:38;10.70;99.90
20416;DHT22;10367;52.202;5.996;2023-04-01T15:27:20;10.70;99.90
20416;DHT22;10367;52.202;5.996;2023-04-01T15:30:06;10.60;99.90
20416;DHT22;10367;52.202;5.996;2023-04-01T15:32:48;10.60;99.90
20416;DHT22;10367;52.202;5.996;2023-04-01T15:35:30;10.60;99.90
20416;DHT22;10367;52.202;5.996;2023-04-01T15:38:08;10.60;99.90
20416;DHT22;10367;52.202;5.996;2023-04-01T15:40:44;10.60;99.90
20416;DHT22;10367;52.202;5.996;2023-04-01T15:43:25;10.60;99.90
20416;DHT22;10367;52.202;5.996;2023-04-01T15:46:02;10.50;99.90
20416;DHT22;10367;52.202;5.996;2023-04-01T15:48:47;10.50;99.90
20416;DHT22;10367;52.202;5.996;2023-04-01T15:51:41;10.50;99.90
20416;DHT22;10367;52.202;5.996;2023-04-01T15:55:03;10.50;99.90
20416;DHT22;10367;52.202;5.996;2023-04-01T15:57:45;10.50;99.90
20416;DHT22;10367;52.202;5.996;2023-04-01T16:00:26;10.40;99.90
20416;DHT22;10367;52.202;5.996;2023-04-01T16:03:19;10.40;99.90
20416;DHT22;10367;52.202;5.996;2023-04-01T16:06:12;10.50;99.90
20416;DHT22;10367;52.202;5.996;2023-04-01T16:09:06;10.40;99.90
20416;DHT22;10367;52.202;5.996;2023-04-01T16:11:46;10.30;99.90
20416;DHT22;10367;52.202;5.996;2023-04-01T16:14:30;10.20;99.90
20416;DHT22;10367;52.202;5.996;2023-04-01T16:17:18;10.10;99.90
20416;DHT22;10367;52.202;5.996;2023-04-01T16:19:51;10.10;99.90
20416;DHT22;10367;52.202;5.996;2023-04-01T16:22:25;10.00;99.90
20416;DHT22;10367;52.202;5.996;2023-04-01T16:25:07;10.00;99.90
20416;DHT22;10367;52.202;5.996;2023-04-01T16:27:49;10.00;99.90
20416;DHT22;10367;52.202;5.996;2023-04-01T16:30:33;10.00;99.90
20416;DHT22;10367;52.202;5.996;2023-04-01T16:33:07;10.00;99.90
20416;DHT22;10367;52.202;5.996;2023-04-01T16:35:43;9.90;99.90
20416;DHT22;10367;52.202;5.996;2023-04-01T16:38:18;9.80;99.90
20416;DHT22;10367;52.202;5.996;2023-04-01T16:40:58;9.80;99.90
20416;DHT22;10367;52.202;5.996;2023-04-01T16:43:39;9.70;99.90
20416;DHT22;10367;52.202;5.996;2023-04-01T16:46:27;9.70;99.90
20416;DHT22;10367;52.202;5.996;2023-04-01T16:49:04;9.60;99.90
20416;DHT22;10367;52.202;5.996;2023-04-01T16:51:46;9.60;99.90
20416;DHT22;10367;52.202;5.996;2023-04-01T16:54:25;9.60;99.90
20416;DHT22;10367;52.202;5.996;2023-04-01T16:57:02;9.60;99.90
20416;DHT22;10367;52.202;5.996;2023-04-01T16:59:36;9.60;99.90
20416;DHT22;10367;52.202;5.996;2023-04-01T17:02:12;9.60;99.90
20416;DHT22;10367;52.202;5.996;2023-04-01T17:04:44;9.50;99.90
20416;DHT22;10367;52.202;5.996;2023-04-01T17:07:23;9.50;99.90
20416;DHT22;10367;52.202;5.996;2023-04-01T17:10:07;9.50;99.90
20416;DHT22;10367;52.202;5.996;2023-04-01T17:12:46;9.50;99.90
20416;DHT22;10367;52.202;5.996;2023-04-01T17:15:26;9.50;99.90
20416;DHT22;10367;52.202;5.996;2023-04-01T17:18:02;9.50;99.90
20416;DHT22;10367;52.202;5.996;2023-04-01T17:20:43;9.50;99.90
20416;DHT22;10367;52.202;5.996;2023-04-01T17:23:21;9.40;99.90
20416;DHT22;10367;52.202;5.996;2023-04-01T17:26:07;9.40;99.90
20416;DHT22;10367;52.202;5.996;2023-04-01T17:28:46;9.40;99.90
20416;DHT22;10367;52.202;5.996;2023-04-01T17:31:32;9.30;99.90
20416;DHT22;10367;52.202;5.996;2023-04-01T17:34:27;9.30;99.90
20416;DHT22;10367;52.202;5.996;2023-04-01T17:37:14;9.20;99.90
20416;DHT22;10367;52.202;5.996;2023-04-01T17:39:53;9.20;99.90
20416;DHT22;10367;52.202;5.996;2023-04-01T17:42:33;9.10;99.90
20416;DHT22;10367;52.202;5.996;2023-04-01T17:45:10;9.00;99.90
20416;DHT22;10367;52.202;5.996;2023-04-01T17:47:52;9.00;99.90
20416;DHT22;10367;52.202;5.996;2023-04-01T17:50:28;8.90;99.90
20416;DHT22;10367;52.202;5.996;2023-04-01T17:53:14;8.90;99.90
20416;DHT22;10367;52.202;5.996;2023-04-01T17:55:51;8.90;99.90
20416;DHT22;10367;52.202;5.996;2023-04-01T17:58:29;8.90;99.90
20416;DHT22;10367;52.202;5.996;2023-04-01T18:01:15;9.00;99.90
20416;DHT22;10367;52.202;5.996;2023-04-01T18:03:57;9.00;99.90
20416;DHT22;10367;52.202;5.996;2023-04-01T18:06:33;9.00;99.90
20416;DHT22;10367;52.202;5.996;2023-04-01T18:09:13;9.00;99.90
20416;DHT22;10367;52.202;5.996;2023-04-01T18:11:54;9.00;99.90
20416;DHT22;10367;52.202;5.996;2023-04-01T18:14:54;9.00;99.90
20416;DHT22;10367;52.202;5.996;2023-04-01T18:17:42;9.00;99.90